Time;durP1;ratioP1;P1;durP2;ratioP2;P2;SDS_P1;SDS_P2;PMS_P1;PMS_P2;Temp;Humidity;BMP_temperature;BMP_pressure;BME280_temperature;BME280_humidity;BME280_pressure;Samples;Min_cycle;Max_cycle;Signal;HPM_P1;HPM_P2
2022/02/01 00:01:36;;;;;;;26.13;4.97;;;3.50;99.90;;;4.17;100.00;100774.13;5035955;28;20408;-77
2022/02/01 00:04:05;;;;;;;28.15;3.92;;;3.50;99.90;;;4.05;100.00;100773.88;5035343;28;20108;-76
2022/02/01 00:06:54;;;;;;;33.40;4.53;;;3.40;99.90;;;3.97;100.00;100765.50;5035349;28;20030;-76
2022/02/01 00:09:29;;;;;;;19.30;3.97;;;3.30;99.90;;;3.97;100.00;100757.22;5035608;28;20052;-77
2022/02/01 00:12:14;;;;;;;25.75;4.75;;;3.30;99.90;;;3.90;100.00;100765.13;5034981;28;20473;-79
2022/02/01 00:36:08;;;;;;;23.70;3.35;;;2.90;99.90;;;3.54;100.00;100806.50;5058557;28;20036;-78
2022/02/01 00:38:42;;;;;;;24.60;5.10;;;2.90;99.90;;;3.51;100.00;100807.13;5074072;28;20044;-77
2022/02/01 00:41:14;;;;;;;24.60;4.47;;;2.80;99.90;;;3.46;100.00;100826.56;5057246;28;20082;-77
2022/02/01 00:43:40;;;;;;;30.55;4.63;;;2.80;99.90;;;3.43;100.00;100822.47;5058488;28;20033;-78
2022/02/01 00:46:06;;;;;;;23.55;3.50;;;2.80;99.90;;;3.41;100.00;100808.13;5056557;28;20032;-77
2022/02/01 00:48:32;;;;;;;30.98;3.67;;;2.70;99.90;;;3.29;100.00;100805.06;5057334;28;20427;-77
2022/02/01 00:51:02;;;;;;;20.55;4.03;;;2.60;99.90;;;3.29;100.00;100796.78;5058851;28;20029;-78
2022/02/01 00:53:31;;;;;;;24.38;5.15;;;2.60;99.90;;;3.26;100.00;100808.44;5059895;28;20032;-78
2022/02/01 00:55:58;;;;;;;28.52;3.58;;;2.60;99.90;;;3.41;100.00;100804.56;5075842;28;20091;-76
2022/02/01 00:58:25;;;;;;;25.30;3.95;;;2.60;99.90;;;3.32;100.00;100792.59;5059301;28;20029;-76
2022/02/01 01:00:53;;;;;;;17.38;2.95;;;2.70;99.90;;;3.31;100.00;100791.78;5074593;28;20063;-78
2022/02/01 01:03:20;;;;;;;27.92;4.78;;;2.70;99.90;;;3.38;100.00;100794.13;5058052;28;20029;-80
2022/02/01 01:05:46;;;;;;;22.70;3.95;;;2.70;99.90;;;3.38;100.00;100807.94;5057674;28;20059;-78
2022/02/01 01:08:16;;;;;;;22.27;4.68;;;2.70;99.90;;;3.40;100.00;100825.84;5060538;28;20100;-78
2022/02/01 01:10:42;;;;;;;24.25;5.20;;;2.80;99.90;;;3.43;100.00;100839.03;5075867;28;20139;-78
2022/02/01 01:54:10;;;;;;;24.50;3.70;;;2.90;99.90;;;3.67;100.00;100831.34;5038650;28;20103;-79
2022/02/01 01:56:40;;;;;;;27.08;3.65;;;2.90;99.90;;;3.59;100.00;100840.38;5038606;28;20033;-78
2022/02/01 01:59:12;;;;;;;27.30;4.28;;;2.90;99.90;;;3.63;100.00;100843.31;5038184;28;20168;-79
2022/02/01 02:01:42;;;;;;;20.88;2.97;;;2.90;99.90;;;3.61;100.00;100849.16;5040141;28;20025;-75
2022/02/01 02:04:09;;;;;;;17.00;3.65;;;2.90;99.90;;;3.68;100.00;100863.38;5040020;28;20029;-79
2022/02/01 02:06:38;;;;;;;19.30;3.00;;;3.00;99.90;;;3.78;100.00;100865.13;5039333;28;20029;-77
2022/02/01 02:09:10;;;;;;;17.00;2.75;;;3.10;99.90;;;3.80;100.00;100867.56;5039898;28;20480;-77
2022/02/01 02:11:44;;;;;;;17.65;3.70;;;3.10;99.90;;;3.81;100.00;100849.88;5040000;28;20052;-78
2022/02/01 02:17:00;;;;;;;15.13;2.88;;;3.10;99.90;;;3.86;100.00;100841.47;5041517;28;20028;-78
2022/02/01 02:19:31;;;;;;;17.40;2.97;;;3.10;99.90;;;3.84;100.00;100850.06;5041494;28;20045;-78
2022/02/01 02:22:02;;;;;;;24.33;3.90;;;3.20;99.90;;;3.90;100.00;100873.72;5038823;28;20029;-78
2022/02/01 02:24:36;;;;;;;17.58;3.28;;;3.20;99.90;;;3.94;100.00;100847.09;5041182;28;20029;-80
2022/02/01 02:27:02;;;;;;;22.42;4.07;;;3.20;99.90;;;3.80;100.00;100834.41;5053760;28;20059;-77
2022/02/01 02:29:29;;;;;;;20.10;3.97;;;3.10;99.90;;;3.78;100.00;100842.19;5075808;28;20246;-78
2022/02/01 02:31:57;;;;;;;20.83;4.72;;;3.10;99.90;;;3.77;100.00;100855.19;5076216;28;20029;-76
2022/02/01 02:34:24;;;;;;;20.55;3.58;;;3.10;99.90;;;3.82;100.00;100866.13;5061317;28;20028;-78
2022/02/01 02:37:03;;;;;;;21.48;3.25;;;3.10;99.90;;;3.88;100.00;100867.69;5060394;28;20099;-78
2022/02/01 02:42:13;;;;;;;22.02;4.18;;;3.10;99.90;;;3.96;100.00;100868.88;5062516;28;20078;-78
2022/02/01 02:45:05;;;;;;;20.35;3.05;;;3.20;99.90;;;3.98;100.00;100874.94;5077424;28;20040;-80
2022/02/01 02:47:32;;;;;;;17.02;3.13;;;3.20;99.90;;;4.01;100.00;100858.56;5074969;28;20025;-78
2022/02/01 02:49:58;;;;;;;33.00;5.18;;;3.20;99.90;;;3.98;100.00;100855.59;5075460;28;20070;-78
2022/02/01 02:52:26;;;;;;;28.67;5.30;;;3.20;99.90;;;3.98;100.00;100852.84;5074880;28;20029;-78
2022/02/01 02:54:56;;;;;;;25.65;4.65;;;3.20;99.90;;;4.02;100.00;100840.81;5074466;28;20055;-79
2022/02/01 02:57:28;;;;;;;28.35;4.70;;;3.20;99.90;;;3.96;100.00;100842.06;5072973;28;20056;-78
2022/02/01 02:59:54;;;;;;;21.02;4.22;;;3.30;99.90;;;3.96;100.00;100842.06;5056146;28;20032;-78
2022/02/01 03:02:20;;;;;;;17.15;3.90;;;3.20;99.90;;;3.91;100.00;100857.94;5055519;28;20057;-78
2022/02/01 03:04:52;;;;;;;25.02;3.75;;;3.20;99.90;;;3.98;100.00;100861.13;5073334;28;20062;-78
2022/02/01 03:07:18;;;;;;;20.42;3.97;;;3.20;99.90;;;4.01;100.00;100866.03;5057221;28;20052;-78
2022/02/01 03:09:44;;;;;;;18.70;4.57;;;3.20;99.90;;;4.05;100.00;100862.31;5056407;28;20029;-78
2022/02/01 03:12:16;;;;;;;25.08;4.15;;;3.30;99.90;;;3.95;100.00;100864.50;5071203;28;20033;-78
2022/02/01 03:14:53;;;;;;;20.88;3.58;;;3.30;99.90;;;3.87;100.00;100854.16;5071184;28;20166;-80
2022/02/01 03:20:06;;;;;;;24.75;4.00;;;3.20;99.90;;;3.81;100.00;100856.22;5043520;28;20512;-80
2022/02/01 03:22:35;;;;;;;22.55;3.78;;;3.10;99.90;;;3.83;100.00;100848.44;5053974;28;20171;-80
2022/02/01 03:25:05;;;;;;;19.60;3.72;;;3.10;99.90;;;3.84;100.00;100852.00;5070443;28;20048;-80
2022/02/01 03:27:32;;;;;;;19.92;3.15;;;3.10;99.90;;;3.73;100.00;100854.16;5035202;28;20025;-81
2022/02/01 03:29:57;;;;;;;20.92;3.25;;;3.10;99.90;;;3.66;100.00;100845.50;5039458;28;20057;-80
2022/02/01 03:32:24;;;;;;;16.77;3.08;;;3.00;99.90;;;3.69;100.00;100834.63;5051947;28;20064;-79
2022/02/01 03:34:53;;;;;;;23.02;3.55;;;3.00;99.90;;;3.63;100.00;100827.56;5047954;28;20052;-78
2022/02/01 03:37:21;;;;;;;15.30;3.33;;;2.90;99.90;;;3.58;100.00;100829.63;5043696;28;20033;-77
2022/02/01 03:39:48;;;;;;;18.67;3.17;;;2.90;99.90;;;3.52;100.00;100828.09;5034950;28;20089;-79
2022/02/01 03:42:16;;;;;;;15.25;3.00;;;2.90;99.90;;;3.45;100.00;100831.25;5035272;28;20030;-76
2022/02/01 03:44:42;;;;;;;20.92;3.67;;;2.80;99.90;;;3.50;100.00;100835.88;5035661;28;20037;-76
2022/02/01 03:47:08;;;;;;;21.33;2.78;;;2.80;99.90;;;3.49;100.00;100848.84;5034211;28;20028;-76
2022/02/01 03:49:42;;;;;;;11.48;2.92;;;2.80;99.90;;;3.50;100.00;100833.91;5033173;28;20075;-77
2022/02/01 03:52:11;;;;;;;20.58;3.28;;;2.80;99.90;;;3.46;100.00;100835.66;5049529;28;20056;-78
2022/02/01 03:54:43;;;;;;;15.60;2.92;;;2.80;99.90;;;3.44;100.00;100835.13;5033531;28;20040;-78
2022/02/01 03:57:15;;;;;;;15.60;3.25;;;2.80;99.90;;;3.45;100.00;100825.75;5037190;28;20036;-80
2022/02/01 03:59:44;;;;;;;24.65;3.10;;;2.80;99.90;;;3.46;100.00;100816.34;5039910;28;20033;-80
2022/02/01 04:02:15;;;;;;;14.23;2.85;;;2.80;99.90;;;3.45;100.00;100808.34;5041933;28;20036;-80
2022/02/01 04:04:42;;;;;;;23.00;3.80;;;2.80;99.90;;;3.43;100.00;100814.19;5042054;28;20085;-78
2022/02/01 04:07:09;;;;;;;25.27;3.50;;;2.70;99.90;;;3.47;100.00;100823.47;5039987;28;20029;-79
2022/02/01 04:09:41;;;;;;;16.85;3.50;;;2.70;99.90;;;3.36;100.00;100819.28;5045937;28;20021;-80
2022/02/01 04:12:08;;;;;;;19.27;3.38;;;2.70;99.90;;;3.36;100.00;100794.44;5042083;28;20033;-80
2022/02/01 04:14:36;;;;;;;15.93;2.95;;;2.70;99.90;;;3.36;100.00;100791.69;5039934;28;20030;-77
2022/02/01 04:17:06;;;;;;;21.42;3.20;;;2.70;99.90;;;3.34;100.00;100785.63;5038352;28;20068;-76
2022/02/01 04:19:34;;;;;;;21.00;3.45;;;2.70;99.90;;;3.32;100.00;100801.69;5038418;28;20036;-76
2022/02/01 04:22:02;;;;;;;19.85;2.90;;;2.70;99.90;;;3.28;100.00;100797.09;5037474;28;20163;-75
2022/02/01 04:24:43;;;;;;;22.27;4.00;;;2.70;99.90;;;3.33;100.00;100800.59;5039453;28;20048;-78
2022/02/01 04:27:19;;;;;;;27.92;4.78;;;2.70;99.90;;;3.30;100.00;100792.91;5052849;28;20112;-76
2022/02/01 04:29:55;;;;;;;17.50;4.07;;;2.70;99.90;;;3.33;100.00;100800.59;5057541;28;20036;-77
2022/02/01 04:32:20;;;;;;;24.15;4.30;;;2.70;99.90;;;3.33;100.00;100799.75;5058987;28;20055;-77
2022/02/01 04:34:57;;;;;;;24.67;4.13;;;2.70;99.90;;;3.37;100.00;100784.22;5058611;28;20037;-79
2022/02/01 04:37:23;;;;;;;14.43;4.03;;;2.70;99.90;;;3.36;100.00;100777.88;5058998;28;20424;-76
2022/02/01 04:39:51;;;;;;;23.85;4.32;;;2.70;99.90;;;3.35;100.00;100762.44;5059191;28;20025;-77
2022/02/01 04:42:17;;;;;;;20.38;3.97;;;2.70;99.90;;;3.32;100.00;100759.47;5058967;28;20125;-77
2022/02/01 04:44:43;;;;;;;20.33;4.53;;;2.70;99.90;;;3.28;100.00;100752.91;5058577;28;20057;-76
2022/02/01 04:47:09;;;;;;;24.92;4.07;;;2.70;99.90;;;3.28;100.00;100752.91;5057438;28;20368;-77
2022/02/01 04:49:35;;;;;;;18.02;3.17;;;2.70;99.90;;;3.25;100.00;100765.41;5058756;28;20075;-77
2022/02/01 04:52:01;;;;;;;21.98;4.70;;;2.60;99.90;;;3.26;100.00;100764.28;5057612;28;20029;-75
2022/02/01 04:54:27;;;;;;;18.92;3.38;;;2.60;99.90;;;3.30;100.00;100770.84;5056123;28;20100;-81
2022/02/01 04:56:53;;;;;;;16.63;3.45;;;2.60;99.90;;;3.30;100.00;100768.06;5056660;28;20032;-78
2022/02/01 04:59:18;;;;;;;22.88;4.30;;;2.60;99.90;;;3.32;100.00;100776.84;5055905;28;20029;-78
2022/02/01 05:01:45;;;;;;;13.32;3.20;;;2.70;99.90;;;3.38;100.00;100783.91;5057021;28;20029;-78
2022/02/01 05:04:18;;;;;;;17.80;4.03;;;2.70;99.90;;;3.42;100.00;100787.69;5056827;28;20419;-76
2022/02/01 05:06:44;;;;;;;15.55;2.92;;;2.70;99.90;;;3.42;100.00;100795.16;5057226;28;20447;-76
2022/02/01 05:09:10;;;;;;;19.25;4.40;;;2.70;99.90;;;3.37;100.00;100785.03;5057615;28;20029;-79
2022/02/01 05:11:36;;;;;;;16.17;2.92;;;2.80;99.90;;;3.34;100.00;100771.84;5057197;28;20057;-76
2022/02/01 05:16:43;;;;;;;18.70;3.55;;;2.70;99.90;;;3.40;100.00;100789.13;5058048;28;20061;-77
2022/02/01 05:19:11;;;;;;;18.23;3.15;;;2.80;99.90;;;3.37;100.00;100796.06;5058329;28;20472;-77
2022/02/01 05:21:41;;;;;;;22.13;3.20;;;2.80;99.90;;;3.37;100.00;100793.31;5057555;28;20036;-76
2022/02/01 05:24:11;;;;;;;19.65;2.88;;;2.80;99.90;;;3.40;100.00;100786.38;5057332;28;20028;-78
2022/02/01 05:26:37;;;;;;;14.30;3.70;;;2.80;99.90;;;3.35;100.00;100792.81;5046771;28;20034;-81
2022/02/01 05:29:06;;;;;;;12.38;2.78;;;2.80;99.90;;;3.42;100.00;100797.91;5037264;28;20029;-80
2022/02/01 05:31:32;;;;;;;22.92;3.47;;;2.80;99.90;;;3.44;100.00;100796.47;5038331;28;20057;-79
2022/02/01 05:33:58;;;;;;;13.60;3.45;;;2.80;99.90;;;3.45;100.00;100797.31;5053539;28;20228;-80
2022/02/01 05:36:23;;;;;;;20.92;3.53;;;2.80;99.90;;;3.34;100.00;100779.31;5037083;28;20056;-80
2022/02/01 05:38:52;;;;;;;14.15;3.08;;;2.80;99.90;;;3.41;100.00;100766.72;5037309;28;20381;-78
2022/02/01 05:41:19;;;;;;;15.90;3.38;;;2.80;99.90;;;3.47;100.00;100759.13;5036660;28;20029;-78
2022/02/01 05:43:44;;;;;;;18.80;3.95;;;2.80;99.90;;;3.48;100.00;100755.25;5036898;28;20033;-76
2022/02/01 05:46:11;;;;;;;14.38;3.17;;;2.80;99.90;;;3.39;100.00;100748.84;5036862;28;20562;-77
2022/02/01 05:48:38;;;;;;;18.88;3.17;;;2.80;99.90;;;3.41;100.00;100741.03;5035736;28;20029;-78
2022/02/01 05:51:04;;;;;;;21.40;3.75;;;2.80;99.90;;;3.30;100.00;100739.63;5036448;28;20044;-79
2022/02/01 05:53:29;;;;;;;22.55;5.00;;;2.80;99.90;;;3.38;100.00;100752.72;5036395;28;20029;-78
2022/02/01 05:55:58;;;;;;;16.05;4.18;;;2.80;99.90;;;3.31;100.00;100747.59;5051356;28;20033;-80
2022/02/01 05:58:27;;;;;;;15.00;3.60;;;2.80;99.90;;;3.34;100.00;100749.75;5035781;28;20037;-77
2022/02/01 06:00:53;;;;;;;18.63;4.35;;;2.80;99.90;;;3.38;100.00;100756.28;5037518;28;20033;-77
2022/02/01 06:03:19;;;;;;;13.90;3.17;;;2.80;99.90;;;3.45;100.00;100750.34;5052839;28;20045;-76
2022/02/01 06:05:48;;;;;;;10.32;3.20;;;2.80;99.90;;;3.41;100.00;100735.53;5037260;28;20037;-79
2022/02/01 06:08:17;;;;;;;8.73;2.83;;;2.80;99.90;;;3.44;100.00;100721.09;5037067;28;20521;-77
2022/02/01 06:10:46;;;;;;;14.13;3.30;;;2.80;99.90;;;3.43;100.00;100706.50;5051372;28;20374;-78
2022/02/01 06:13:11;;;;;;;19.00;3.17;;;2.80;99.90;;;3.44;100.00;100690.72;5036105;28;20037;-78
2022/02/01 06:15:43;;;;;;;20.38;3.63;;;2.80;99.90;;;3.40;100.00;100695.25;5052007;28;20120;-78
2022/02/01 06:18:09;;;;;;;15.70;4.38;;;2.80;99.90;;;3.36;100.00;100685.97;5035744;28;20489;-78
2022/02/01 06:20:35;;;;;;;12.57;3.28;;;2.80;99.90;;;3.39;100.00;100693.63;5036778;28;20104;-76
2022/02/01 06:23:01;;;;;;;22.25;4.32;;;2.80;99.90;;;3.41;100.00;100696.88;5051699;28;20044;-77
2022/02/01 06:25:48;;;;;;;11.40;2.88;;;2.80;99.90;;;3.38;100.00;100712.13;5039189;28;20017;-77
2022/02/01 06:28:28;;;;;;;;;;;2.80;99.90;;;3.41;100.00;100710.69;5058673;28;20100;-74
2022/02/01 06:30:55;;;;;;;20.77;3.88;;;2.80;99.90;;;3.49;100.00;100707.19;5056335;28;20003;-76
2022/02/01 06:33:23;;;;;;;19.60;3.53;;;2.80;99.90;;;3.49;100.00;100699.75;5072082;28;20476;-76
2022/02/01 06:35:53;;;;;;;19.65;3.72;;;2.90;99.90;;;3.47;100.00;100707.50;5056749;28;20026;-77
2022/02/01 06:38:19;;;;;;;21.92;3.60;;;2.90;99.90;;;3.49;100.00;100710.78;5057043;28;20025;-76
2022/02/01 06:40:48;;;;;;;15.65;3.30;;;2.90;99.90;;;3.55;100.00;100708.72;5057621;28;20028;-77
2022/02/01 06:43:23;;;;;;;12.80;3.03;;;2.90;99.90;;;3.57;100.00;100687.13;5055821;28;20029;-77
2022/02/01 06:45:52;;;;;;;15.75;3.38;;;3.00;99.90;;;3.60;100.00;100689.25;5056456;28;20021;-78
2022/02/01 06:48:18;;;;;;;14.40;2.88;;;3.00;99.90;;;3.58;100.00;100691.53;5056345;28;20029;-75
2022/02/01 06:50:45;;;;;;;12.18;3.35;;;3.00;99.90;;;3.60;100.00;100697.56;5056893;28;20040;-77
2022/02/01 06:53:11;;;;;;;15.70;3.50;;;3.00;99.90;;;3.58;100.00;100686.00;5072537;28;20056;-78
2022/02/01 06:55:55;;;;;;;18.67;3.90;;;3.00;99.90;;;3.59;100.00;100691.25;5057296;28;20032;-80
2022/02/01 06:58:21;;;;;;;13.77;3.63;;;3.00;99.90;;;3.72;100.00;100681.28;5072239;28;20025;-78
2022/02/01 07:00:47;;;;;;;18.10;3.60;;;3.10;99.90;;;3.67;100.00;100684.13;5058751;28;20040;-78
2022/02/01 07:03:16;;;;;;;19.98;3.80;;;3.10;99.90;;;3.59;100.00;100677.44;5057531;28;20075;-76
2022/02/01 07:05:41;;;;;;;16.35;4.68;;;3.10;99.90;;;3.75;100.00;100675.13;5057482;28;20102;-75
2022/02/01 07:08:07;;;;;;;17.80;4.32;;;3.10;99.90;;;3.76;100.00;100673.97;5059769;28;20033;-77
2022/02/01 07:10:34;;;;;;;20.67;4.25;;;3.10;99.90;;;3.70;100.00;100664.19;5059634;28;20086;-77
2022/02/01 07:13:02;;;;;;;19.33;5.05;;;3.10;99.90;;;3.77;100.00;100659.03;5060769;28;20036;-76
2022/02/01 07:15:28;;;;;;;21.20;4.72;;;3.20;99.90;;;3.89;100.00;100659.28;5061477;28;20567;-77
2022/02/01 07:17:56;;;;;;;14.57;4.10;;;3.20;99.90;;;3.88;100.00;100651.34;5060817;28;20048;-75
2022/02/01 07:20:25;;;;;;;16.13;3.72;;;3.20;99.90;;;3.88;100.00;100654.09;5065188;28;20098;-76
2022/02/01 07:22:52;;;;;;;15.85;4.93;;;3.30;99.90;;;3.91;100.00;100668.09;5062682;28;20033;-74
2022/02/01 07:25:32;;;;;;;18.25;3.85;;;3.30;99.90;;;3.89;100.00;100675.06;5076131;28;20058;-77
2022/02/01 07:28:04;;;;;;;14.45;3.78;;;3.30;99.90;;;3.93;100.00;100687.13;5038280;28;20026;-76
2022/02/01 07:30:31;;;;;;;15.35;4.03;;;3.30;99.90;;;4.06;100.00;100681.53;5039767;28;20026;-79
2022/02/01 07:33:02;;;;;;;17.20;4.07;;;3.40;99.90;;;4.05;100.00;100692.91;5040683;28;20025;-76
2022/02/01 07:35:30;;;;;;;17.77;4.20;;;3.40;99.90;;;4.00;100.00;100662.63;5037927;28;20034;-75
2022/02/01 07:38:07;;;;;;;15.35;3.78;;;3.40;99.90;;;4.10;100.00;100671.50;5039749;28;20025;-77
2022/02/01 07:40:34;;;;;;;20.63;4.40;;;3.50;99.90;;;4.03;100.00;100664.78;5039090;28;20044;-78
2022/02/01 07:43:01;;;;;;;12.15;2.97;;;3.40;99.90;;;4.05;100.00;100652.25;5038831;28;20113;-76
2022/02/01 07:45:29;;;;;;;14.40;3.47;;;3.50;99.90;;;4.09;100.00;100644.16;5037669;28;20048;-77
2022/02/01 07:48:03;;;;;;;19.38;3.72;;;3.50;99.90;;;4.12;100.00;100644.34;5053627;28;20031;-76
2022/02/01 07:50:32;;;;;;;17.20;4.38;;;3.50;99.90;;;4.25;100.00;100646.22;5054653;28;20052;-78
2022/02/01 07:53:00;;;;;;;19.02;3.97;;;3.60;99.90;;;4.21;100.00;100647.16;5045832;28;20136;-75
2022/02/01 07:55:29;;;;;;;22.45;3.90;;;3.60;99.90;;;4.26;100.00;100635.97;5039673;28;20036;-77
2022/02/01 07:57:54;;;;;;;15.48;4.22;;;3.70;99.90;;;4.22;100.00;100634.97;5039957;28;20048;-76
2022/02/01 08:00:20;;;;;;;11.35;4.18;;;3.70;99.90;;;4.33;100.00;100636.34;5039078;28;20033;-74
2022/02/01 08:02:46;;;;;;;14.23;3.40;;;3.70;99.90;;;4.35;100.00;100636.84;5037238;28;20140;-76
2022/02/01 08:05:15;;;;;;;15.57;3.35;;;3.80;99.90;;;4.38;100.00;100629.84;5038990;28;20025;-75
2022/02/01 08:07:41;;;;;;;15.00;3.95;;;3.80;99.90;;;4.46;100.00;100643.75;5039169;28;20026;-76
2022/02/01 08:10:12;;;;;;;10.48;3.95;;;3.80;99.90;;;4.51;100.00;100631.72;5039921;28;20033;-76
2022/02/01 08:20:49;;;;;;;15.90;4.28;;;3.90;99.90;;;4.55;100.00;100619.72;5040184;28;20069;-75
2022/02/01 08:23:15;;;;;;;14.38;4.40;;;3.90;99.90;;;4.56;100.00;100615.00;5039221;28;20108;-75
2022/02/01 08:25:41;;;;;;;12.32;4.13;;;4.00;99.90;;;4.47;100.00;100603.06;5042902;28;20523;-76
2022/02/01 08:28:07;;;;;;;13.60;4.70;;;3.90;99.90;;;4.54;100.00;100595.94;5058627;28;20063;-76
2022/02/01 08:30:39;;;;;;;18.67;5.50;;;3.90;99.90;;;4.63;100.00;100587.66;5058117;28;20033;-77
2022/02/01 08:33:08;;;;;;;19.65;5.18;;;3.90;99.90;;;4.43;100.00;100566.91;5057516;28;20084;-77
2022/02/01 08:35:37;;;;;;;18.05;5.03;;;3.90;99.90;;;4.47;100.00;100578.16;5057406;28;20106;-75
2022/02/01 08:38:03;;;;;;;24.05;5.53;;;3.90;99.90;;;4.47;100.00;100564.34;5053188;28;20094;-79
2022/02/01 08:40:29;;;;;;;18.52;5.72;;;3.90;99.90;;;4.45;100.00;100564.66;5065568;28;20078;-76
2022/02/01 08:43:04;;;;;;;19.02;6.07;;;3.90;99.90;;;4.43;100.00;100550.34;5070285;28;20029;-77
2022/02/01 08:45:31;;;;;;;16.92;6.00;;;3.90;99.90;;;4.48;100.00;100538.31;5056787;28;20112;-76
2022/02/01 08:47:58;;;;;;;18.95;6.40;;;3.90;99.90;;;4.63;100.00;100546.16;5062784;28;20438;-76
2022/02/01 08:50:31;;;;;;;14.10;5.38;;;4.00;99.90;;;4.55;100.00;100547.78;5061785;28;20044;-76
2022/02/01 08:53:09;;;;;;;23.23;6.97;;;4.00;99.90;;;4.63;100.00;100540.63;5076666;28;20092;-76
2022/02/01 08:55:39;;;;;;;21.15;6.78;;;4.00;99.90;;;4.54;100.00;100540.63;5076879;28;20048;-78
2022/02/01 08:58:07;;;;;;;18.27;6.22;;;4.00;99.90;;;4.54;100.00;100534.28;5061023;28;20426;-76
2022/02/01 09:00:35;;;;;;;20.67;6.28;;;4.00;99.90;;;4.63;100.00;100527.63;5061495;28;20100;-77
2022/02/01 09:03:05;;;;;;;12.95;5.40;;;4.00;99.90;;;4.59;100.00;100529.41;5060449;28;20032;-77
2022/02/01 09:05:32;;;;;;;13.20;5.63;;;4.00;99.90;;;4.57;100.00;100517.03;5060269;28;20108;-76
2022/02/01 09:08:03;;;;;;;13.93;5.95;;;4.00;99.90;;;4.52;100.00;100506.94;5076870;28;20055;-77
2022/02/01 09:10:31;;;;;;;16.92;5.75;;;4.00;99.90;;;4.56;100.00;100488.56;5076633;28;20506;-78
2022/02/01 09:12:59;;;;;;;14.02;5.55;;;4.00;99.90;;;4.57;100.00;100489.38;5062144;28;20040;-77
2022/02/01 09:15:29;;;;;;;18.67;6.15;;;4.00;99.90;;;4.61;100.00;100477.34;5075520;28;20029;-76
2022/02/01 09:17:59;;;;;;;12.20;4.88;;;4.10;99.90;;;4.60;100.00;100475.72;5060270;28;20538;-77
2022/02/01 09:20:25;;;;;;;18.92;5.35;;;4.10;99.90;;;4.64;100.00;100465.66;5059414;28;20159;-77
2022/02/01 09:22:52;;;;;;;12.07;4.80;;;4.10;99.90;;;4.72;100.00;100456.53;5058946;28;20640;-78
2022/02/01 09:25:19;;;;;;;16.25;5.10;;;4.10;99.90;;;4.73;100.00;100446.28;5074084;28;20022;-77
2022/02/01 09:27:50;;;;;;;11.43;5.25;;;4.20;99.90;;;4.81;100.00;100439.94;5038772;28;20025;-77
2022/02/01 09:30:22;;;;;;;17.20;4.90;;;4.30;99.90;;;4.71;100.00;100421.72;5039269;28;20558;-80
2022/02/01 09:32:49;;;;;;;11.35;4.72;;;4.30;99.90;;;4.90;100.00;100420.56;5040215;28;20100;-79
2022/02/01 09:35:15;;;;;;;11.18;4.40;;;4.40;99.90;;;5.06;100.00;100414.22;5040646;28;20124;-76
2022/02/01 09:37:42;;;;;;;10.45;4.30;;;4.40;99.90;;;4.95;100.00;100415.69;5038333;28;20034;-77
2022/02/01 09:40:10;;;;;;;7.38;4.22;;;4.40;99.90;;;5.02;100.00;100407.72;5038129;28;20040;-77
2022/02/01 09:42:40;;;;;;;6.68;4.00;;;4.40;99.90;;;5.03;100.00;100397.44;5038328;28;20029;-77
2022/02/01 09:45:12;;;;;;;6.00;3.88;;;4.50;99.90;;;4.93;100.00;100392.25;5041698;28;20080;-77
2022/02/01 09:47:46;;;;;;;6.60;3.22;;;4.40;99.90;;;4.92;100.00;100388.66;5043070;28;20072;-80
2022/02/01 09:50:17;;;;;;;5.15;3.38;;;4.50;99.90;;;5.02;100.00;100393.88;5040456;28;20028;-78
2022/02/01 09:52:44;;;;;;;6.00;3.38;;;4.50;99.90;;;4.99;100.00;100386.22;5040243;28;20496;-77
2022/02/01 09:55:14;;;;;;;6.97;3.83;;;4.50;99.90;;;5.01;100.00;100372.84;5039150;28;20033;-76
2022/02/01 09:57:44;;;;;;;9.45;3.92;;;4.50;99.90;;;5.15;100.00;100375.44;5038493;28;20389;-77
2022/02/01 10:00:23;;;;;;;6.45;3.58;;;4.60;99.90;;;5.15;100.00;100378.22;5038482;28;20036;-76
2022/02/01 10:02:58;;;;;;;5.95;3.45;;;4.60;99.90;;;5.24;100.00;100379.00;5054024;28;20029;-76
2022/02/01 10:05:31;;;;;;;5.30;3.40;;;4.60;99.90;;;5.22;100.00;100370.22;5038867;28;20029;-76
2022/02/01 10:07:58;;;;;;;8.80;4.13;;;4.70;99.90;;;5.19;100.00;100359.81;5033155;23;20108;-78
2022/02/01 10:10:30;;;;;;;6.78;3.95;;;4.60;99.90;;;5.14;100.00;100358.00;4999111;28;20022;-77
2022/02/01 10:13:08;;;;;;;7.55;4.38;;;4.60;99.90;;;5.22;100.00;100345.31;5014267;28;20582;-78
2022/02/01 10:15:35;;;;;;;6.55;3.70;;;4.70;99.90;;;5.23;100.00;100327.56;5014059;28;20026;-76
2022/02/01 10:18:04;;;;;;;7.80;3.92;;;4.70;99.90;;;5.31;100.00;100318.41;5015921;28;20026;-77
2022/02/01 10:20:42;;;;;;;7.00;4.13;;;4.70;99.90;;;5.32;100.00;100303.41;5017059;28;20401;-79
2022/02/01 10:23:29;;;;;;;5.30;3.40;;;4.80;99.90;;;5.32;100.00;100300.66;5019090;28;20061;-78
2022/02/01 10:26:19;;;;;;;7.22;3.97;;;4.80;99.90;;;5.43;100.00;100312.16;5024620;28;20032;-78
2022/02/01 10:31:56;;;;;;;4.72;3.88;;;4.80;99.90;;;5.47;100.00;100280.69;5034571;28;20079;-79
2022/02/01 10:37:03;;;;;;;9.05;4.43;;;4.90;99.90;;;5.48;100.00;100268.50;5037436;28;20826;-77
2022/02/01 10:39:33;;;;;;;6.53;4.68;;;4.90;99.90;;;5.42;100.00;100274.53;5035342;28;20025;-76
2022/02/01 10:42:08;;;;;;;8.82;4.78;;;4.90;99.90;;;5.51;100.00;100267.00;5035723;28;20029;-79
2022/02/01 10:45:08;;;;;;;5.70;4.38;;;4.90;99.90;;;5.41;100.00;100265.41;5036310;28;20025;-79
2022/02/01 10:47:42;;;;;;;8.50;4.78;;;4.90;99.90;;;5.38;100.00;100252.25;5034119;28;20377;-79
2022/02/01 10:50:18;;;;;;;8.38;5.50;;;4.90;99.90;;;5.36;100.00;100240.69;5038507;28;20025;-79
2022/02/01 10:52:48;;;;;;;9.30;5.15;;;4.90;99.90;;;5.32;100.00;100228.66;5041256;28;20021;-79
2022/02/01 10:55:19;;;;;;;7.13;5.15;;;4.90;99.90;;;5.30;100.00;100217.06;5041145;28;20034;-79
2022/02/01 10:57:47;;;;;;;7.75;5.40;;;4.90;99.90;;;5.49;100.00;100225.78;5056974;28;20040;-77
2022/02/01 11:00:18;;;;;;;11.80;6.13;;;4.90;99.90;;;5.38;100.00;100218.19;5039443;28;20069;-78
2022/02/01 11:02:47;;;;;;;12.25;5.55;;;4.90;99.90;;;5.39;100.00;100215.09;5038604;28;20032;-76
2022/02/01 11:05:18;;;;;;;7.90;5.90;;;4.90;99.90;;;5.51;100.00;100211.59;5038239;28;20029;-76
2022/02/01 11:07:52;;;;;;;9.27;6.38;;;4.90;99.90;;;5.49;100.00;100206.38;5037125;28;20052;-78
2022/02/01 11:10:18;;;;;;;12.10;6.45;;;5.00;99.90;;;5.59;100.00;100214.31;5038867;28;20140;-76
2022/02/01 11:12:44;;;;;;;11.73;6.80;;;5.00;99.90;;;5.55;100.00;100207.84;5038866;28;20025;-76
2022/02/01 11:16:14;;;;;;;10.05;6.07;;;5.00;99.90;;;5.59;100.00;100211.53;5040624;28;20089;-78
2022/02/01 11:18:54;;;;;;;10.70;6.45;;;5.00;99.90;;;5.61;100.00;100200.94;5054854;28;20503;-75
2022/02/01 11:21:21;;;;;;;9.20;6.30;;;5.00;99.90;;;5.60;100.00;100207.63;5040506;28;20125;-75
2022/02/01 11:26:51;;;;;;;7.95;5.85;;;5.10;99.90;;;5.64;100.00;100191.97;5041635;28;20037;-76
2022/02/01 11:29:38;;;;;;;9.43;4.72;;;5.10;99.90;;;5.68;100.00;100167.97;5043140;28;20488;-79
2022/02/01 11:32:16;;;;;;;7.35;5.00;;;5.10;99.90;;;5.75;100.00;100171.00;5041472;28;20029;-77
2022/02/01 11:34:42;;;;;;;7.07;4.75;;;5.10;99.90;;;5.79;100.00;100171.16;5038143;28;20069;-77
2022/02/01 11:37:15;;;;;;;7.88;5.22;;;5.10;99.90;;;5.80;100.00;100170.00;5038401;28;20033;-79
2022/02/01 11:39:52;;;;;;;8.20;4.97;;;5.10;99.90;;;5.77;100.00;100151.28;5038231;28;20428;-79
2022/02/01 11:42:22;;;;;;;5.50;4.25;;;5.20;99.90;;;5.82;100.00;100146.34;5036811;28;20026;-79
2022/02/01 11:45:07;;;;;;;5.65;4.47;;;5.20;99.90;;;5.91;100.00;100132.44;5036413;28;20021;-77
2022/02/01 11:47:39;;;;;;;5.53;3.75;;;5.30;99.90;;;5.96;100.00;100139.75;5035084;28;20022;-76
2022/02/01 11:50:09;;;;;;;5.60;3.67;;;5.30;99.90;;;5.96;100.00;100134.19;5037118;28;20036;-78
2022/02/01 11:52:53;;;;;;;7.13;4.18;;;5.30;99.90;;;5.98;100.00;100126.34;5036566;28;20055;-79
2022/02/01 11:55:28;;;;;;;6.00;3.90;;;5.40;99.90;;;6.08;100.00;100131.47;5036344;28;20026;-78
2022/02/01 11:58:02;;;;;;;4.40;3.30;;;5.40;99.90;;;6.02;100.00;100128.09;5036117;28;20029;-77